Time;durP1;ratioP1;P1;durP2;ratioP2;P2;SDS_P1;SDS_P2;PMS_P1;PMS_P2;Temp;Humidity;BMP_temperature;BMP_pressure;BME280_temperature;BME280_humidity;BME280_pressure;Samples;Min_cycle;Max_cycle;Signal;HPM_P1;HPM_P2
2023/02/18 00:01:28;;;;;;;;;;;;;;;11.01;54.00;102069.38;5015791;28;19916;-70
2023/02/18 00:04:21;;;;;;;;;;;;;;;10.97;54.38;102066.38;5013523;28;20485;-70
2023/02/18 00:07:13;;;;;;;;;;;;;;;11.02;54.25;102068.28;5007236;28;19913;-70
2023/02/18 00:10:03;;;;;;;;;;;;;;;10.87;55.02;102069.19;5011358;28;19913;-71
2023/02/18 00:12:55;;;;;;;;;;;;;;;10.97;54.28;102060.94;5013177;28;19913;-70
2023/02/18 00:15:47;;;;;;;;;;;;;;;11.00;54.58;102062.31;5004505;28;20370;-70
2023/02/18 00:18:39;;;;;;;;;;;;;;;10.87;54.54;102063.75;5007362;28;19913;-70
2023/02/18 00:21:29;;;;;;;;;;;;;;;10.87;54.55;102068.41;5018286;28;20570;-70
2023/02/18 00:24:22;;;;;;;;;;;;;;;11.00;54.14;102065.84;5016398;28;19917;-70
2023/02/18 00:27:14;;;;;;;;;;;;;;;10.85;54.21;102059.69;5003455;28;19914;-70
2023/02/18 00:30:06;;;;;;;;;;;;;;;11.04;54.26;102057.91;5018143;28;19913;-70
2023/02/18 00:32:58;;;;;;;;;;;;;;;10.77;54.92;102063.81;4998540;28;19913;-70
2023/02/18 00:35:50;;;;;;;;;;;;;;;10.80;54.87;102066.00;5006028;28;20302;-70
2023/02/18 00:38:40;;;;;;;;;;;;;;;10.73;54.82;102065.50;4994793;28;19913;-71
2023/02/18 00:41:33;;;;;;;;;;;;;;;10.64;55.07;102061.75;5014587;28;20402;-71
2023/02/18 00:44:25;;;;;;;;;;;;;;;10.63;55.38;102063.66;5002880;28;19917;-70
2023/02/18 00:47:20;;;;;;;;;;;;;;;10.73;54.62;102060.88;5015990;28;19913;-70
2023/02/18 00:50:12;;;;;;;;;;;;;;;10.70;54.58;102066.06;4999100;28;19913;-70
2023/02/18 00:53:04;;;;;;;;;;;;;;;10.81;54.14;102062.19;5013447;28;19913;-70
2023/02/18 00:55:56;;;;;;;;;;;;;;;10.78;54.06;102062.75;5009803;28;19913;-70
2023/02/18 00:58:48;;;;;;;;;;;;;;;10.65;54.33;102050.59;4998062;28;19913;-70
2023/02/18 01:01:37;;;;;;;;;;;;;;;10.53;55.03;102049.31;5001476;28;19914;-71
2023/02/18 01:04:30;;;;;;;;;;;;;;;10.73;54.59;102058.16;5012070;28;19918;-70
2023/02/18 01:07:22;;;;;;;;;;;;;;;10.80;54.14;102060.56;5002596;28;19913;-70
2023/02/18 01:10:14;;;;;;;;;;;;;;;10.82;53.85;102058.34;5000631;28;19917;-70
2023/02/18 01:13:06;;;;;;;;;;;;;;;10.76;53.59;102062.22;4998727;28;19913;-70
2023/02/18 01:15:58;;;;;;;;;;;;;;;10.60;54.54;102055.25;5009886;28;19921;-70
2023/02/18 01:18:52;;;;;;;;;;;;;;;10.46;55.04;102065.16;4993898;28;19913;-70
2023/02/18 01:21:44;;;;;;;;;;;;;;;10.40;55.40;102058.09;4997272;28;19913;-70
2023/02/18 01:24:37;;;;;;;;;;;;;;;10.34;55.61;102056.50;5016130;28;19917;-70
2023/02/18 01:27:29;;;;;;;;;;;;;;;10.39;55.21;102043.69;5014255;28;20386;-70
2023/02/18 01:30:21;;;;;;;;;;;;;;;10.36;55.44;102049.72;5002499;28;20499;-70
2023/02/18 01:33:07;;;;;;;;;;;;;;;10.41;55.63;102049.69;5013614;28;20378;-70
2023/02/18 01:36:01;;;;;;;;;;;;;;;10.50;55.46;102044.44;4997101;28;19922;-70
2023/02/18 01:38:53;;;;;;;;;;;;;;;10.36;55.64;102038.03;5006870;28;19914;-70
2023/02/18 01:41:45;;;;;;;;;;;;;;;10.50;55.51;102031.66;4997188;28;19913;-70
2023/02/18 01:44:35;;;;;;;;;;;;;;;10.58;55.02;102031.06;4997489;28;19917;-70
2023/02/18 01:47:27;;;;;;;;;;;;;;;10.51;54.70;102035.19;5016358;28;19913;-69
2023/02/18 01:50:19;;;;;;;;;;;;;;;10.37;55.19;102042.34;4998856;28;19913;-70
2023/02/18 01:53:12;;;;;;;;;;;;;;;10.39;54.99;102037.44;5013003;28;19914;-69
2023/02/18 01:56:06;;;;;;;;;;;;;;;10.29;54.87;102036.41;5000404;28;20374;-70
2023/02/18 01:58:58;;;;;;;;;;;;;;;10.15;54.72;102032.66;5006870;28;19913;-70
2023/02/18 02:01:50;;;;;;;;;;;;;;;10.26;54.50;102031.53;4993269;28;19917;-70
2023/02/18 02:04:43;;;;;;;;;;;;;;;10.13;55.36;102025.88;4999266;28;19917;-70
2023/02/18 02:07:35;;;;;;;;;;;;;;;10.16;55.76;102026.13;5011707;28;19913;-70
2023/02/18 02:10:32;;;;;;;;;;;;;;;10.43;55.63;102030.34;5011805;28;19921;-69
2023/02/18 02:13:29;;;;;;;;;;;;;;;10.58;55.82;102022.06;4992668;28;19913;-70
2023/02/18 02:16:28;;;;;;;;;;;;;;;10.62;55.67;102028.56;5001302;28;19917;-70
2023/02/18 02:19:20;;;;;;;;;;;;;;;10.59;55.84;102021.81;4999747;28;19913;-70
2023/02/18 02:22:22;;;;;;;;;;;;;;;10.54;55.79;102029.19;4999638;28;19917;-70
2023/02/18 02:25:31;;;;;;;;;;;;;;;10.32;55.17;102031.50;5003847;28;20298;-70
2023/02/18 02:28:37;;;;;;;;;;;;;;;10.28;53.33;102032.06;5000652;28;19913;-70
2023/02/18 02:31:42;;;;;;;;;;;;;;;9.97;53.47;102019.69;5014865;28;19913;-69
2023/02/18 02:34:53;;;;;;;;;;;;;;;10.05;53.82;102027.28;5000582;28;19913;-70
2023/02/18 02:37:47;;;;;;;;;;;;;;;10.12;53.65;102033.19;5003576;28;19913;-70
2023/02/18 02:40:43;;;;;;;;;;;;;;;10.13;54.25;102025.88;5013823;28;19913;-70
2023/02/18 02:43:53;;;;;;;;;;;;;;;9.94;54.54;102014.00;4995209;28;19914;-70
2023/02/18 02:46:46;;;;;;;;;;;;;;;9.98;54.90;102005.03;4994524;28;20305;-70
2023/02/18 02:50:00;;;;;;;;;;;;;;;10.05;55.07;102007.44;5005081;28;19913;-70
2023/02/18 02:52:53;;;;;;;;;;;;;;;10.05;55.30;102002.00;5001277;28;19913;-70
2023/02/18 02:55:42;;;;;;;;;;;;;;;10.01;54.76;101998.19;5013863;28;19918;-69
2023/02/18 02:58:34;;;;;;;;;;;;;;;10.03;54.29;101994.13;5002586;28;19913;-70
2023/02/18 03:01:30;;;;;;;;;;;;;;;10.01;55.08;101982.72;5011343;28;19913;-70
2023/02/18 03:04:38;;;;;;;;;;;;;;;10.07;54.54;101984.31;5001104;28;19917;-70
2023/02/18 03:07:30;;;;;;;;;;;;;;;10.07;54.43;101986.22;5001477;28;19914;-70
2023/02/18 03:10:26;;;;;;;;;;;;;;;9.92;54.53;101981.69;5004885;28;19913;-70
2023/02/18 03:13:32;;;;;;;;;;;;;;;9.94;53.40;101984.94;5014769;28;20297;-70
2023/02/18 03:16:30;;;;;;;;;;;;;;;9.88;54.67;101984.16;4999900;28;19913;-70
2023/02/18 03:19:31;;;;;;;;;;;;;;;9.98;54.82;101982.47;5002932;28;20382;-70
2023/02/18 03:22:30;;;;;;;;;;;;;;;10.00;55.18;101988.44;4996307;28;19914;-70
2023/02/18 03:25:22;;;;;;;;;;;;;;;10.01;55.72;101984.59;5003028;28;19917;-70
2023/02/18 03:28:15;;;;;;;;;;;;;;;9.88;55.99;101986.88;5016094;28;20370;-70
2023/02/18 03:31:09;;;;;;;;;;;;;;;9.80;54.97;101997.50;5013072;28;19913;-70
2023/02/18 03:34:19;;;;;;;;;;;;;;;9.76;54.71;101993.69;4997116;28;19913;-70
2023/02/18 03:37:10;;;;;;;;;;;;;;;9.72;54.43;101996.16;5014029;28;20294;-70
2023/02/18 03:40:03;;;;;;;;;;;;;;;9.68;54.92;101991.56;5018090;28;19913;-70
2023/02/18 03:42:52;;;;;;;;;;;;;;;9.63;55.39;101989.69;5014049;28;19917;-70
2023/02/18 03:45:44;;;;;;;;;;;;;;;9.71;56.15;101996.44;5010924;28;19917;-70
2023/02/18 03:48:36;;;;;;;;;;;;;;;9.65;57.40;101992.94;5016818;28;19914;-70
2023/02/18 03:51:28;;;;;;;;;;;;;;;9.66;57.49;101986.41;4999779;28;19913;-70
2023/02/18 03:54:20;;;;;;;;;;;;;;;9.56;57.27;101991.88;5002761;28;19913;-70
2023/02/18 03:57:10;;;;;;;;;;;;;;;9.56;56.50;101991.06;5001550;28;20290;-70
2023/02/18 04:00:02;;;;;;;;;;;;;;;9.57;56.26;101984.53;5014109;28;19914;-70
2023/02/18 04:03:02;;;;;;;;;;;;;;;9.62;55.33;101992.69;5013910;28;19924;-70
2023/02/18 04:05:54;;;;;;;;;;;;;;;9.39;56.18;101992.22;5014045;28;20298;-70
2023/02/18 04:08:46;;;;;;;;;;;;;;;9.40;56.24;101991.13;5016747;28;19913;-70
2023/02/18 04:11:40;;;;;;;;;;;;;;;9.34;56.69;101986.00;5007962;28;19913;-70
2023/02/18 04:14:32;;;;;;;;;;;;;;;9.33;56.95;101990.59;5008519;28;19921;-70
2023/02/18 04:17:24;;;;;;;;;;;;;;;9.33;57.42;101993.31;5017569;28;20394;-70
2023/02/18 04:20:16;;;;;;;;;;;;;;;9.30;58.78;101993.84;5015088;28;19913;-70
2023/02/18 04:23:08;;;;;;;;;;;;;;;9.29;59.36;101997.69;5013264;28;19913;-70
2023/02/18 04:26:00;;;;;;;;;;;;;;;9.28;59.75;101996.03;5015494;28;19918;-70
2023/02/18 04:28:51;;;;;;;;;;;;;;;9.30;59.96;101999.28;5008252;28;20382;-69
2023/02/18 04:31:43;;;;;;;;;;;;;;;9.28;60.05;101995.22;5017303;28;19914;-69
2023/02/18 04:34:35;;;;;;;;;;;;;;;9.30;60.12;102001.19;5013273;28;19913;-70
2023/02/18 04:37:27;;;;;;;;;;;;;;;9.28;60.24;102000.66;5011922;28;19914;-70
2023/02/18 04:40:19;;;;;;;;;;;;;;;9.25;60.11;101995.75;5013300;28;19913;-69
2023/02/18 04:43:11;;;;;;;;;;;;;;;9.18;59.91;102009.63;5013544;28;19918;-70
2023/02/18 04:46:03;;;;;;;;;;;;;;;9.20;59.93;102010.16;5013833;28;20314;-70
2023/02/18 04:48:55;;;;;;;;;;;;;;;9.26;59.83;102011.78;5015320;28;19913;-70
2023/02/18 04:51:47;;;;;;;;;;;;;;;9.25;59.46;101999.28;5006258;28;19913;-70
2023/02/18 04:54:37;;;;;;;;;;;;;;;9.25;59.54;102001.19;5017763;28;19913;-71
2023/02/18 04:57:29;;;;;;;;;;;;;;;8.94;60.05;102008.56;5015274;28;19913;-70
2023/02/18 05:00:21;;;;;;;;;;;;;;;8.94;59.98;102008.56;5011683;28;19917;-70
2023/02/18 05:03:13;;;;;;;;;;;;;;;9.05;59.38;102010.19;5011180;28;19913;-70
2023/02/18 05:06:05;;;;;;;;;;;;;;;9.09;59.26;102013.19;5009754;28;19917;-70
2023/02/18 05:08:57;;;;;;;;;;;;;;;9.12;59.49;102013.44;5012760;28;19939;-70
2023/02/18 05:11:49;;;;;;;;;;;;;;;9.06;59.49;102017.25;5014912;28;20305;-70
2023/02/18 05:14:41;;;;;;;;;;;;;;;9.06;59.31;102025.38;5013554;28;19917;-70
2023/02/18 05:17:33;;;;;;;;;;;;;;;9.07;58.95;102021.59;5015629;28;19921;-70
2023/02/18 05:20:25;;;;;;;;;;;;;;;9.07;58.76;102016.16;5011724;28;19914;-70
2023/02/18 05:23:17;;;;;;;;;;;;;;;9.05;59.24;102018.31;5009027;28;19917;-70
2023/02/18 05:26:09;;;;;;;;;;;;;;;8.76;60.72;102009.13;5016292;28;19917;-70
2023/02/18 05:29:01;;;;;;;;;;;;;;;8.71;60.67;102015.34;5004062;28;20313;-70
2023/02/18 05:31:51;;;;;;;;;;;;;;;8.53;61.60;102016.69;5003916;28;19917;-70
2023/02/18 05:34:43;;;;;;;;;;;;;;;8.70;60.91;102023.75;5014018;28;19914;-70
2023/02/18 05:37:34;;;;;;;;;;;;;;;8.84;60.59;102013.97;5011547;28;19914;-70
2023/02/18 05:40:27;;;;;;;;;;;;;;;8.87;60.55;102013.47;5023180;28;19913;-70
2023/02/18 05:43:18;;;;;;;;;;;;;;;8.80;60.51;102015.63;5010256;28;20379;-70
2023/02/18 05:46:10;;;;;;;;;;;;;;;8.85;60.31;102018.31;5007967;28;19917;-70
2023/02/18 05:49:02;;;;;;;;;;;;;;;8.89;60.31;102019.41;5011023;28;19914;-70
2023/02/18 05:51:54;;;;;;;;;;;;;;;8.91;60.14;102017.25;5007772;28;19914;-71
2023/02/18 05:54:46;;;;;;;;;;;;;;;8.89;60.08;102020.22;5008992;28;19917;-71
2023/02/18 05:57:38;;;;;;;;;;;;;;;8.87;60.40;102030.56;5014892;28;20370;-70
2023/02/18 06:00:30;;;;;;;;;;;;;;;8.89;60.20;102031.06;5011302;28;20370;-70
2023/02/18 06:03:22;;;;;;;;;;;;;;;8.91;60.20;102028.09;5011669;28;20303;-70
2023/02/18 06:06:15;;;;;;;;;;;;;;;8.91;59.85;102036.22;5018225;28;19918;-70
2023/02/18 06:09:07;;;;;;;;;;;;;;;8.89;60.02;102038.41;5016233;28;19913;-70
2023/02/18 06:11:59;;;;;;;;;;;;;;;8.90;60.04;102048.16;5019804;28;20382;-70
2023/02/18 06:14:51;;;;;;;;;;;;;;;8.89;60.01;102041.09;5017844;28;19917;-70
2023/02/18 06:17:41;;;;;;;;;;;;;;;8.89;60.02;102038.41;5030146;28;19913;-70
2023/02/18 06:20:33;;;;;;;;;;;;;;;8.89;60.19;102039.22;5031552;28;19912;-70
2023/02/18 06:23:24;;;;;;;;;;;;;;;8.75;60.72;102040.84;5034016;28;19913;-70
2023/02/18 06:26:16;;;;;;;;;;;;;;;8.77;60.87;102044.09;5034460;28;19917;-70
2023/02/18 06:29:08;;;;;;;;;;;;;;;8.79;60.92;102057.38;5018358;28;19913;-70
2023/02/18 06:32:00;;;;;;;;;;;;;;;8.69;61.47;102054.66;5010463;28;19914;-70
2023/02/18 06:34:52;;;;;;;;;;;;;;;8.58;61.68;102051.16;5019829;28;19913;-70
2023/02/18 06:37:44;;;;;;;;;;;;;;;8.63;61.88;102053.03;5027089;28;19917;-69
2023/02/18 06:40:36;;;;;;;;;;;;;;;8.46;62.43;102061.41;5027990;28;19916;-70
2023/02/18 06:43:26;;;;;;;;;;;;;;;8.53;62.20;102060.06;5023987;28;19913;-70
2023/02/18 06:46:18;;;;;;;;;;;;;;;8.59;62.06;102058.16;5036255;28;19917;-70
2023/02/18 06:49:10;;;;;;;;;;;;;;;8.62;61.83;102062.25;5026743;28;20366;-70
2023/02/18 06:51:59;;;;;;;;;;;;;;;8.57;61.88;102060.34;5017881;28;19921;-71
2023/02/18 06:54:51;;;;;;;;;;;;;;;8.55;61.54;102060.63;5015749;28;20366;-70
2023/02/18 06:57:43;;;;;;;;;;;;;;;8.61;61.17;102060.63;5021757;28;19917;-70
2023/02/18 07:00:35;;;;;;;;;;;;;;;8.44;61.65;102069.81;5020906;28;19988;-70
2023/02/18 07:03:27;;;;;;;;;;;;;;;8.33;62.52;102062.72;5006323;28;19914;-70
2023/02/18 07:06:18;;;;;;;;;;;;;;;8.46;62.28;102067.66;5011023;28;19917;-70
2023/02/18 07:09:10;;;;;;;;;;;;;;;8.57;61.75;102072.00;5009723;28;19913;-70
2023/02/18 07:12:02;;;;;;;;;;;;;;;8.58;61.88;102068.19;5011942;28;19918;-70
2023/02/18 07:14:54;;;;;;;;;;;;;;;8.61;61.57;102071.47;5011555;28;19913;-71
2023/02/18 07:17:43;;;;;;;;;;;;;;;8.58;61.33;102068.19;5005877;28;20279;-71
2023/02/18 07:20:35;;;;;;;;;;;;;;;8.58;61.47;102070.91;5022310;28;20387;-70
2023/02/18 07:23:27;;;;;;;;;;;;;;;8.65;61.09;102072.56;5015338;28;19913;-71
2023/02/18 07:26:19;;;;;;;;;;;;;;;8.72;61.05;102070.41;5003166;28;19917;-71
2023/02/18 07:29:11;;;;;;;;;;;;;;;8.74;60.95;102077.16;5007762;28;19933;-71
2023/02/18 07:32:03;;;;;;;;;;;;;;;8.79;61.04;102081.78;5006572;28;19913;-72
2023/02/18 07:34:55;;;;;;;;;;;;;;;8.76;61.26;102076.91;5011707;28;19914;-72
2023/02/18 07:37:53;;;;;;;;;;;;;;;8.64;61.37;102081.75;5008180;28;20378;-72
2023/02/18 07:40:46;;;;;;;;;;;;;;;8.46;61.89;102083.09;5016858;28;19917;-72
2023/02/18 07:43:38;;;;;;;;;;;;;;;8.45;61.96;102090.41;5008538;28;20090;-72
2023/02/18 07:46:30;;;;;;;;;;;;;;;8.42;62.48;102087.44;5008325;28;19917;-72
2023/02/18 07:49:22;;;;;;;;;;;;;;;8.48;61.92;102086.38;5004840;28;19925;-72
2023/02/18 07:52:13;;;;;;;;;;;;;;;8.56;61.24;102086.66;5006924;28;20307;-73
2023/02/18 07:55:05;;;;;;;;;;;;;;;8.47;62.06;102084.72;5006742;28;19914;-72
2023/02/18 07:58:01;;;;;;;;;;;;;;;8.84;61.26;102088.03;5009536;28;19914;-72
2023/02/18 08:00:53;;;;;;;;;;;;;;;8.76;61.05;102079.63;5005861;28;19914;-74
2023/02/18 08:03:42;;;;;;;;;;;;;;;8.77;61.27;102087.50;5010465;28;19918;-73
2023/02/18 08:06:35;;;;;;;;;;;;;;;8.67;61.75;102082.06;5012452;28;19918;-73
2023/02/18 08:09:27;;;;;;;;;;;;;;;8.61;62.08;102088.56;5004560;28;20375;-73
2023/02/18 08:12:19;;;;;;;;;;;;;;;8.57;62.39;102087.47;5007511;28;20318;-73
2023/02/18 08:15:06;;;;;;;;;;;;;;;8.86;61.65;102085.88;5007740;28;19913;-73
2023/02/18 08:17:58;;;;;;;;;;;;;;;8.88;61.81;102093.75;5006848;28;19913;-72
2023/02/18 08:20:48;;;;;;;;;;;;;;;8.90;61.89;102091.56;5008438;28;19913;-72
2023/02/18 08:23:38;;;;;;;;;;;;;;;8.88;62.46;102088.34;5014866;28;19913;-72
2023/02/18 08:26:30;;;;;;;;;;;;;;;8.64;63.29;102082.59;5011383;28;20382;-73
2023/02/18 08:29:21;;;;;;;;;;;;;;;8.76;62.83;102085.88;5010004;28;20534;-73
2023/02/18 08:32:13;;;;;;;;;;;;;;;8.81;62.69;102094.00;5005202;28;19913;-73
2023/02/18 08:35:06;;;;;;;;;;;;;;;8.71;63.32;102082.34;5016148;28;19913;-73
2023/02/18 08:37:53;;;;;;;;;;;;;;;8.78;63.18;102074.75;5015181;28;19913;-73
2023/02/18 08:40:43;;;;;;;;;;;;;;;8.81;63.26;102083.16;5007679;28;19917;-72
2023/02/18 08:43:35;;;;;;;;;;;;;;;8.53;64.30;102086.38;5009519;28;19917;-73
2023/02/18 08:46:27;;;;;;;;;;;;;;;8.32;65.16;102082.78;5028156;28;19917;-73
2023/02/18 08:49:19;;;;;;;;;;;;;;;8.58;64.72;102080.97;5020919;28;19913;-73
2023/02/18 08:52:11;;;;;;;;;;;;;;;8.71;64.46;102080.44;5012515;28;20410;-72
2023/02/18 08:55:01;;;;;;;;;;;;;;;8.77;64.36;102075.84;5015799;28;19914;-73
2023/02/18 08:57:53;;;;;;;;;;;;;;;8.94;63.51;102074.47;5013617;28;19913;-73
2023/02/18 09:00:45;;;;;;;;;;;;;;;9.11;62.97;102082.34;5015676;28;19917;-73
2023/02/18 09:03:35;;;;;;;;;;;;;;;9.09;63.30;102081.00;5010425;28;19913;-73
2023/02/18 09:06:27;;;;;;;;;;;;;;;9.07;63.34;102084.00;5011945;28;19921;-73
2023/02/18 09:09:19;;;;;;;;;;;;;;;9.06;63.45;102082.34;5016278;28;19913;-73
2023/02/18 09:12:08;;;;;;;;;;;;;;;9.07;63.82;102081.28;5013239;28;19943;-73
2023/02/18 09:15:00;;;;;;;;;;;;;;;9.11;63.60;102081.53;5017727;28;20402;-74
2023/02/18 09:17:52;;;;;;;;;;;;;;;9.13;63.71;102082.91;5015292;28;20470;-73
2023/02/18 09:20:44;;;;;;;;;;;;;;;9.02;64.29;102078.56;5005836;28;19913;-73
2023/02/18 09:23:36;;;;;;;;;;;;;;;8.85;65.07;102084.25;5012166;28;19914;-73
2023/02/18 09:26:25;;;;;;;;;;;;;;;8.88;64.95;102083.72;5012686;28;19917;-73
2023/02/18 09:29:18;;;;;;;;;;;;;;;9.07;64.38;102075.03;4997292;28;19917;-72
2023/02/18 09:32:10;;;;;;;;;;;;;;;9.20;64.26;102082.63;5012801;28;19914;-72
2023/02/18 09:35:02;;;;;;;;;;;;;;;9.23;64.35;102074.75;5005267;28;19913;-72
2023/02/18 09:37:54;;;;;;;;;;;;;;;9.10;64.91;102080.72;5011565;28;19914;-72
2023/02/18 09:40:51;;;;;;;;;;;;;;;9.15;64.54;102071.75;5007759;28;19914;-72
2023/02/18 09:43:50;;;;;;;;;;;;;;;9.04;65.05;102070.16;5008030;28;19922;-72
2023/02/18 09:46:44;;;;;;;;;;;;;;;9.14;65.03;102068.25;5013070;28;19925;-72
2023/02/18 09:49:36;;;;;;;;;;;;;;;9.27;64.87;102072.31;5004453;28;19913;-72
2023/02/18 09:52:28;;;;;;;;;;;;;;;9.06;65.56;102060.66;5009800;28;20386;-72
2023/02/18 09:55:20;;;;;;;;;;;;;;;9.12;65.59;102061.47;5013560;28;19913;-72
2023/02/18 09:58:16;;;;;;;;;;;;;;;9.21;65.55;102060.63;5007241;28;19917;-72
2023/02/18 10:01:12;;;;;;;;;;;;;;;9.24;65.66;102065.53;5021238;28;19917;-72
2023/02/18 10:04:04;;;;;;;;;;;;;;;9.36;65.33;102059.81;5011887;28;19914;-75
2023/02/18 10:06:55;;;;;;;;;;;;;;;9.39;64.84;102068.25;5019443;28;19921;-73
2023/02/18 10:09:48;;;;;;;;;;;;;;;9.44;64.73;102059.28;5009544;28;19913;-73
2023/02/18 10:12:40;;;;;;;;;;;;;;;9.39;65.12;102062.81;5002546;28;19913;-73
2023/02/18 10:15:33;;;;;;;;;;;;;;;9.49;65.22;102061.16;5008772;28;19921;-72
2023/02/18 10:18:41;;;;;;;;;;;;;;;9.60;65.12;102054.63;5009246;28;19913;-72
2023/02/18 10:21:33;;;;;;;;;;;;;;;9.61;64.64;102057.03;5012340;28;19921;-72
2023/02/18 10:24:26;;;;;;;;;;;;;;;9.65;64.66;102060.03;5013391;28;19914;-71
2023/02/18 10:27:34;;;;;;;;;;;;;;;9.64;64.84;102058.41;5008399;28;19917;-72
2023/02/18 10:30:39;;;;;;;;;;;;;;;9.64;64.98;102058.41;5021869;28;19913;-72
2023/02/18 10:33:36;;;;;;;;;;;;;;;9.69;64.91;102045.63;5010151;28;20378;-73
2023/02/18 10:36:32;;;;;;;;;;;;;;;9.75;64.87;102044.50;5017458;28;19914;-73
2023/02/18 10:39:31;;;;;;;;;;;;;;;9.90;64.46;102043.66;5019692;28;19913;-74
2023/02/18 10:42:27;;;;;;;;;;;;;;;9.93;64.14;102045.81;5016910;28;20008;-74
2023/02/18 10:45:28;;;;;;;;;;;;;;;10.02;64.30;102032.44;5018262;28;19917;-74
2023/02/18 10:48:27;;;;;;;;;;;;;;;10.14;63.77;102041.09;5015592;28;19913;-73
2023/02/18 10:51:20;;;;;;;;;;;;;;;10.14;63.96;102041.09;5014671;28;19913;-73
2023/02/18 10:54:15;;;;;;;;;;;;;;;10.20;63.85;102040.00;5016576;28;19951;-72
2023/02/18 10:57:07;;;;;;;;;;;;;;;10.20;63.93;102034.56;5013626;28;19918;-74
2023/02/18 11:00:16;;;;;;;;;;;;;;;9.98;65.22;102026.75;5017106;28;19913;-73
2023/02/18 11:03:21;;;;;;;;;;;;;;;9.93;65.68;102020.53;5012550;28;19917;-73
2023/02/18 11:06:32;;;;;;;;;;;;;;;10.06;65.31;102015.28;5014372;28;19917;-73
2023/02/18 11:09:36;;;;;;;;;;;;;;;10.11;65.44;102015.25;5014942;28;19928;-73
2023/02/18 11:12:31;;;;;;;;;;;;;;;10.10;65.60;102010.94;5012059;28;19913;-73
2023/02/18 11:15:24;;;;;;;;;;;;;;;10.21;65.23;102009.00;5013255;28;19913;-72
2023/02/18 11:18:23;;;;;;;;;;;;;;;10.22;65.25;101999.75;5019983;28;19913;-73
2023/02/18 11:21:28;;;;;;;;;;;;;;;10.26;65.07;101998.91;5012194;28;20467;-73
2023/02/18 11:24:21;;;;;;;;;;;;;;;10.25;65.62;102000.00;5027943;28;19913;-73
2023/02/18 11:27:12;;;;;;;;;;;;;;;10.32;65.33;101983.38;5025340;28;19921;-73
2023/02/18 11:30:06;;;;;;;;;;;;;;;10.33;65.21;101985.00;5014712;28;19913;-73
2023/02/18 11:33:00;;;;;;;;;;;;;;;10.32;65.33;101990.72;5015005;28;19913;-74
2023/02/18 11:35:56;;;;;;;;;;;;;;;10.37;65.33;101980.63;5010669;28;19917;-74
2023/02/18 11:38:49;;;;;;;;;;;;;;;10.39;65.17;101969.47;5016542;28;19913;-74
2023/02/18 11:41:46;;;;;;;;;;;;;;;10.41;64.96;101970.81;5014822;28;19913;-73
2023/02/18 11:44:41;;;;;;;;;;;;;;;10.43;65.06;101967.78;5011724;28;19913;-75
2023/02/18 11:47:38;;;;;;;;;;;;;;;10.27;65.75;101962.47;5016580;28;19917;-72
2023/02/18 11:50:32;;;;;;;;;;;;;;;10.13;66.53;101956.00;5016302;28;20286;-74
2023/02/18 11:53:31;;;;;;;;;;;;;;;10.13;66.90;101947.88;5006113;28;19914;-73
2023/02/18 11:56:23;;;;;;;;;;;;;;;10.00;67.77;101942.25;5012966;28;19913;-73
2023/02/18 11:59:15;;;;;;;;;;;;;;;10.51;66.84;101940.84;5008949;28;19921;-74
2023/02/18 12:02:05;;;;;;;;;;;;;;;9.64;69.21;101939.72;5016539;28;19936;-74
2023/02/18 12:05:01;;;;;;;;;;;;;;;9.17;73.60;101936.63;5014980;28;20378;-72
2023/02/18 12:08:10;;;;;;;;;;;;;;;9.78;70.81;101939.91;5018345;28;19918;-74
2023/02/18 12:11:08;;;;;;;;;;;;;;;9.01;74.57;101928.53;5011776;28;19921;-73
2023/02/18 12:13:58;;;;;;;;;;;;;;;9.79;71.10;101926.06;5007429;28;20294;-73
2023/02/18 12:17:04;;;;;;;;;;;;;;;10.13;69.10;101925.31;5015271;28;19913;-73
2023/02/18 12:20:20;;;;;;;;;;;;;;;10.10;68.97;101925.88;5013391;28;20362;-73
2023/02/18 12:23:18;;;;;;;;;;;;;;;9.96;69.24;101906.66;5013755;28;19917;-73
2023/02/18 12:26:27;;;;;;;;;;;;;;;10.36;67.80;101904.78;5013666;28;19917;-73
2023/02/18 12:29:36;;;;;;;;;;;;;;;10.27;68.79;101907.28;5009595;28;20366;-76
2023/02/18 12:32:33;;;;;;;;;;;;;;;10.54;67.29;101895.91;5007005;28;20302;-74
2023/02/18 12:35:38;;;;;;;;;;;;;;;10.79;66.17;101887.50;5014767;28;19913;-73
2023/02/18 12:38:37;;;;;;;;;;;;;;;10.57;67.46;101885.28;5013035;28;19913;-73
2023/02/18 12:41:49;;;;;;;;;;;;;;;9.96;69.69;101886.81;5016872;28;19913;-74
2023/02/18 12:44:45;;;;;;;;;;;;;;;9.07;73.68;101883.22;5007012;28;19914;-73
2023/02/18 12:47:51;;;;;;;;;;;;;;;9.35;74.07;101882.53;5017172;28;20450;-73
2023/02/18 12:50:50;;;;;;;;;;;;;;;9.99;72.02;101870.78;5007738;28;19914;-73
2023/02/18 12:53:55;;;;;;;;;;;;;;;12.97;60.98;101865.22;5002666;28;20374;-72
2023/02/18 12:56:50;;;;;;;;;;;;;;;13.53;57.57;101870.38;5016077;28;19921;-74
2023/02/18 12:59:40;;;;;;;;;;;;;;;11.69;62.63;101854.00;5007964;28;19913;-74
2023/02/18 13:02:32;;;;;;;;;;;;;;;13.70;57.39;101863.16;5011505;28;19921;-74
2023/02/18 13:05:25;;;;;;;;;;;;;;;14.79;53.39;101852.78;5023410;28;19914;-74
2023/02/18 13:08:15;;;;;;;;;;;;;;;17.78;46.51;101852.66;5019735;28;19921;-74
2023/02/18 13:11:19;;;;;;;;;;;;;;;18.17;43.87;101854.13;5015291;28;19913;-74
2023/02/18 13:14:16;;;;;;;;;;;;;;;18.04;44.54;101846.94;5012900;28;19913;-73
2023/02/18 13:17:12;;;;;;;;;;;;;;;17.36;44.78;101840.81;5003752;28;19913;-73
2023/02/18 13:20:02;;;;;;;;;;;;;;;17.83;45.23;101838.69;5010288;28;19914;-74
2023/02/18 13:22:52;;;;;;;;;;;;;;;14.23;52.67;101828.78;5007895;28;19913;-74
2023/02/18 13:25:44;;;;;;;;;;;;;;;15.58;51.12;101828.88;5003860;28;19926;-73
2023/02/18 13:28:44;;;;;;;;;;;;;;;15.27;51.32;101818.00;4999454;28;19914;-73
2023/02/18 13:31:59;;;;;;;;;;;;;;;17.41;45.10;101818.63;5007505;28;19921;-74
2023/02/18 13:35:06;;;;;;;;;;;;;;;20.65;37.65;101816.84;5007256;28;20362;-74
2023/02/18 13:37:59;;;;;;;;;;;;;;;21.73;35.74;101815.06;5016028;28;20298;-75
2023/02/18 13:40:51;;;;;;;;;;;;;;;21.50;36.88;101808.63;5008605;28;19914;-73
2023/02/18 13:43:43;;;;;;;;;;;;;;;23.88;31.75;101805.13;5016989;28;19917;-72
2023/02/18 13:46:48;;;;;;;;;;;;;;;24.76;29.56;101801.66;5014948;28;19917;-71
2023/02/18 13:49:40;;;;;;;;;;;;;;;20.52;36.15;101798.78;5002945;28;19913;-71
2023/02/18 13:52:32;;;;;;;;;;;;;;;21.36;35.75;101796.44;5015782;28;20305;-72
2023/02/18 13:55:22;;;;;;;;;;;;;;;20.98;35.61;101784.09;5018530;28;19913;-72
2023/02/18 13:58:21;;;;;;;;;;;;;;;22.69;33.31;101786.38;5021155;28;19917;-71
2023/02/18 14:01:31;;;;;;;;;;;;;;;23.14;32.28;101777.19;5013373;28;19917;-72
2023/02/18 14:04:39;;;;;;;;;;;;;;;22.08;33.88;101775.41;5015550;28;19921;-71
2023/02/18 14:07:45;;;;;;;;;;;;;;;19.35;40.47;101771.41;5011366;28;21551;-71
2023/02/18 14:10:36;;;;;;;;;;;;;;;21.82;34.69;101764.97;5005653;28;19917;-72
2023/02/18 14:13:39;;;;;;;;;;;;;;;21.36;35.15;101766.00;5021389;28;19913;-72
2023/02/18 14:16:49;;;;;;;;;;;;;;;22.73;32.33;101755.94;5015918;28;19921;-71
2023/02/18 14:19:41;;;;;;;;;;;;;;;21.73;33.71;101759.69;5015355;28;19913;-71
2023/02/18 14:22:46;;;;;;;;;;;;;;;21.69;34.35;101755.22;5002019;28;19917;-72
2023/02/18 14:25:51;;;;;;;;;;;;;;;20.32;36.68;101750.88;5011428;28;19913;-72
2023/02/18 14:28:53;;;;;;;;;;;;;;;20.05;37.80;101741.47;5016675;28;20298;-71
2023/02/18 14:31:47;;;;;;;;;;;;;;;20.65;36.74;101753.28;5000218;28;20295;-71
2023/02/18 14:35:06;;;;;;;;;;;;;;;19.66;38.17;101732.13;5013217;28;19913;-71
2023/02/18 14:38:09;;;;;;;;;;;;;;;20.24;37.44;101727.78;4972164;28;19932;-71
2023/02/18 14:41:10;;;;;;;;;;;;;;;20.30;37.50;101728.31;5017334;28;20370;-72
2023/02/18 14:44:08;;;;;;;;;;;;;;;20.32;36.75;101731.53;5014341;28;19913;-71
2023/02/18 14:47:16;;;;;;;;;;;;;;;21.28;35.34;101731.84;5013959;28;20309;-72
2023/02/18 14:50:11;;;;;;;;;;;;;;;21.52;35.03;101728.78;5015178;28;20382;-71
2023/02/18 14:53:04;;;;;;;;;;;;;;;21.63;34.52;101715.97;5002595;28;19913;-71
2023/02/18 14:55:54;;;;;;;;;;;;;;;19.71;37.93;101717.28;5008862;28;19913;-71
2023/02/18 14:58:47;;;;;;;;;;;;;;;17.93;41.47;101706.19;5019028;28;19913;-71
2023/02/18 15:01:39;;;;;;;;;;;;;;;18.02;42.26;101711.59;5017466;28;19913;-72
2023/02/18 15:04:31;;;;;;;;;;;;;;;16.42;46.05;101712.16;5014415;28;20394;-71